Greenville Spartanburg International Airport Greenville US
ICAO: KGSP
IATA: GSP
Category: Large
Scheduled Services: Yes

Elevation: 964 ft
TransAlt. 18000 ft.

Airport Communications:
GREER APP/DEP:120.6
ATIS:134.25
CTAF:120.1
GREER GND:121.9
GREER TWR:120.1
UNICOM:122.95

KGSP Zoom In..

Runways:

(A) RW 04 length 11001 ft width 150 ft
ILS 109.30 / hdg 38

(B) RW 22 length 11001 ft width 150 ft
ILS 110.70 / hdg 218

Location; KGSP
Day. 22 / Time. 09.53 Zulu
* Altimeter: 30.16
* Temperature: 03° c. 37.4°f.
* Wind from: 330° Speed 04 kn.
Dewpoint: -07° c.
Visibility: 10 Statute Miles.
Clouds: Clear (automated report).

KGSP 220953Z AUTO 33004KT 10SM CLR 03/M07 A3016 RMK AO2 SLP214 T00281067

Going to: --> -->


Wind From 330°
Speed 04 kn.

 
 
jpsmedia worldairports.se 2021   terms of use